AVA9710 SKBO-SKBG
Flight info
| Callsign | AVA9710 |
|---|---|
| Flight time | 0h 29m |
| Altitude | 23000 |
| Route | OSUSU4R KOVBU A567 OPROG OPROG1B |
| Aircraft | A320/M-SDE3FGHIRWY/LB1 |
Departure
| Time | 2026-05-04 19:16 |
|---|---|
| Airport | El Dorado International Airport (SKBO) |
Arrival
| Time | 2026-05-04 19:45 |
|---|---|
| Airport | Palonegro Airport (SKBG) |
| Time | Latitude | Longitude | Altitude | Speed | Heading |
|---|---|---|---|---|---|
| 2026-05-04 18:55 | 4.69785 | -74.14534 | 8373 ft | 0 kts | 37° |
| 2026-05-04 19:08 | 4.69777 | -74.14540 | 8393 ft | 4 kts | 39° |
| 2026-05-04 19:08 | 4.69760 | -74.14554 | 8372 ft | 4 kts | 23° |
| 2026-05-04 19:08 | 4.69737 | -74.14554 | 8373 ft | 4 kts | 328° |
| 2026-05-04 19:09 | 4.69718 | -74.14538 | 8371 ft | 2 kts | 307° |
| 2026-05-04 19:09 | 4.69718 | -74.14537 | 8371 ft | 0 kts | 307° |
| 2026-05-04 19:11 | 4.69731 | -74.14554 | 8373 ft | 7 kts | 308° |
| 2026-05-04 19:11 | 4.69774 | -74.14613 | 8373 ft | 13 kts | 307° |
| 2026-05-04 19:11 | 4.69843 | -74.14703 | 8373 ft | 19 kts | 306° |
| 2026-05-04 19:11 | 4.69941 | -74.14773 | 8373 ft | 17 kts | 19° |
| 2026-05-04 19:12 | 4.70044 | -74.14702 | 8373 ft | 19 kts | 38° |
| 2026-05-04 19:12 | 4.70273 | -74.14527 | 8373 ft | 22 kts | 37° |
| 2026-05-04 19:12 | 4.70399 | -74.14430 | 8373 ft | 23 kts | 37° |
| 2026-05-04 19:13 | 4.70510 | -74.14445 | 8373 ft | 17 kts | 309° |
| 2026-05-04 19:13 | 4.70584 | -74.14539 | 8372 ft | 18 kts | 308° |
| 2026-05-04 19:13 | 4.70666 | -74.14647 | 8373 ft | 21 kts | 306° |
| 2026-05-04 19:13 | 4.70765 | -74.14776 | 8373 ft | 25 kts | 308° |
| 2026-05-04 19:14 | 4.70877 | -74.14923 | 8374 ft | 28 kts | 308° |
| 2026-05-04 19:14 | 4.70998 | -74.15086 | 8373 ft | 29 kts | 306° |
| 2026-05-04 19:14 | 4.71122 | -74.15251 | 8373 ft | 30 kts | 307° |
| 2026-05-04 19:14 | 4.71233 | -74.15370 | 8372 ft | 14 kts | 4° |
| 2026-05-04 19:15 | 4.71294 | -74.15288 | 8374 ft | 20 kts | 82° |
| 2026-05-04 19:15 | 4.71266 | -74.15114 | 8371 ft | 33 kts | 124° |
| 2026-05-04 19:15 | 4.71015 | -74.14780 | 8370 ft | 91 kts | 127° |
| 2026-05-04 19:15 | 4.70515 | -74.14120 | 8371 ft | 145 kts | 127° |
| 2026-05-04 19:16 | 4.69815 | -74.13209 | 8532 ft | 175 kts | 128° |
| 2026-05-04 19:16 | 4.69150 | -74.12243 | 9442 ft | 171 kts | 111° |
| 2026-05-04 19:16 | 4.69127 | -74.11065 | 9867 ft | 175 kts | 66° |
| 2026-05-04 19:16 | 4.69935 | -74.10171 | 10374 ft | 178 kts | 32° |
| 2026-05-04 19:17 | 4.71046 | -74.09577 | 10792 ft | 183 kts | 25° |
| 2026-05-04 19:17 | 4.72233 | -74.09091 | 11263 ft | 185 kts | 25° |
| 2026-05-04 19:17 | 4.73448 | -74.08595 | 11577 ft | 197 kts | 26° |
| 2026-05-04 19:17 | 4.74756 | -74.08064 | 11894 ft | 204 kts | 26° |
| 2026-05-04 19:18 | 4.76097 | -74.07520 | 12175 ft | 215 kts | 26° |
| 2026-05-04 19:18 | 4.77540 | -74.06932 | 12310 ft | 233 kts | 25° |
| 2026-05-04 19:18 | 4.79106 | -74.06308 | 12530 ft | 251 kts | 24° |
| 2026-05-04 19:18 | 4.80836 | -74.05692 | 12502 ft | 276 kts | 22° |
| 2026-05-04 19:19 | 4.82734 | -74.05055 | 12724 ft | 299 kts | 21° |
| 2026-05-04 19:19 | 4.84791 | -74.04377 | 12932 ft | 323 kts | 21° |
| 2026-05-04 19:19 | 4.87004 | -74.03650 | 13092 ft | 346 kts | 21° |
| 2026-05-04 19:19 | 4.89348 | -74.02870 | 13406 ft | 361 kts | 21° |
| 2026-05-04 19:20 | 4.91756 | -74.02065 | 13979 ft | 368 kts | 21° |
| 2026-05-04 19:20 | 4.94195 | -74.01248 | 14563 ft | 371 kts | 21° |
| 2026-05-04 19:20 | 4.96655 | -74.00420 | 15152 ft | 374 kts | 21° |
| 2026-05-04 19:20 | 4.99091 | -73.99589 | 15763 ft | 376 kts | 22° |
| 2026-05-04 19:21 | 5.01545 | -73.98670 | 16355 ft | 378 kts | 24° |
| 2026-05-04 19:21 | 5.03995 | -73.97687 | 16932 ft | 380 kts | 25° |
| 2026-05-04 19:21 | 5.06455 | -73.96687 | 17490 ft | 383 kts | 25° |
| 2026-05-04 19:21 | 5.08938 | -73.95683 | 18058 ft | 386 kts | 25° |
| 2026-05-04 19:22 | 5.11441 | -73.94681 | 18568 ft | 389 kts | 24° |
| 2026-05-04 19:22 | 5.13974 | -73.93681 | 19024 ft | 392 kts | 24° |
| 2026-05-04 19:22 | 5.16521 | -73.92685 | 19553 ft | 394 kts | 24° |
| 2026-05-04 19:22 | 5.19076 | -73.91691 | 20052 ft | 395 kts | 24° |
| 2026-05-04 19:23 | 5.21656 | -73.90686 | 20474 ft | 399 kts | 24° |
| 2026-05-04 19:23 | 5.24251 | -73.89673 | 20917 ft | 402 kts | 24° |
| 2026-05-04 19:23 | 5.26864 | -73.88649 | 21354 ft | 405 kts | 24° |
| 2026-05-04 19:23 | 5.29492 | -73.87617 | 21766 ft | 407 kts | 24° |
| 2026-05-04 19:24 | 5.32140 | -73.86576 | 22184 ft | 410 kts | 24° |
| 2026-05-04 19:24 | 5.34809 | -73.85528 | 22617 ft | 412 kts | 24° |
| 2026-05-04 19:24 | 5.37491 | -73.84476 | 22974 ft | 416 kts | 24° |
| 2026-05-04 19:24 | 5.40193 | -73.83421 | 23078 ft | 418 kts | 24° |
| 2026-05-04 19:25 | 5.42914 | -73.82360 | 23072 ft | 421 kts | 24° |
| 2026-05-04 19:25 | 5.45641 | -73.81293 | 23070 ft | 421 kts | 24° |
| 2026-05-04 19:25 | 5.48365 | -73.80224 | 23075 ft | 421 kts | 24° |
| 2026-05-04 19:25 | 5.51099 | -73.79149 | 23085 ft | 423 kts | 23° |
| 2026-05-04 19:26 | 5.53841 | -73.78070 | 23079 ft | 424 kts | 23° |
| 2026-05-04 19:26 | 5.56587 | -73.76990 | 23068 ft | 424 kts | 23° |
| 2026-05-04 19:26 | 5.59338 | -73.75910 | 23063 ft | 424 kts | 23° |
| 2026-05-04 19:26 | 5.62086 | -73.74833 | 23060 ft | 424 kts | 23° |
| 2026-05-04 19:27 | 5.64831 | -73.73757 | 23056 ft | 423 kts | 23° |
| 2026-05-04 19:27 | 5.67573 | -73.72682 | 23054 ft | 423 kts | 23° |
| 2026-05-04 19:27 | 5.70317 | -73.71606 | 23041 ft | 423 kts | 23° |
| 2026-05-04 19:27 | 5.73019 | -73.70546 | 23040 ft | 423 kts | 23° |
| 2026-05-04 19:28 | 5.75765 | -73.69469 | 23043 ft | 423 kts | 23° |
| 2026-05-04 19:28 | 5.78512 | -73.68391 | 23043 ft | 423 kts | 23° |
| 2026-05-04 19:28 | 5.81253 | -73.67312 | 23043 ft | 424 kts | 23° |
| 2026-05-04 19:28 | 5.83997 | -73.66232 | 23044 ft | 424 kts | 23° |
| 2026-05-04 19:29 | 5.86746 | -73.65151 | 23037 ft | 424 kts | 23° |
| 2026-05-04 19:29 | 5.89493 | -73.64073 | 23047 ft | 424 kts | 22° |
| 2026-05-04 19:29 | 5.92244 | -73.62997 | 23057 ft | 424 kts | 22° |
| 2026-05-04 19:29 | 5.94992 | -73.61922 | 23056 ft | 424 kts | 23° |
| 2026-05-04 19:30 | 5.97668 | -73.60714 | 23048 ft | 420 kts | 30° |
| 2026-05-04 19:30 | 6.00210 | -73.59264 | 23029 ft | 420 kts | 31° |
| 2026-05-04 19:30 | 6.02752 | -73.57817 | 23027 ft | 420 kts | 31° |
| 2026-05-04 19:30 | 6.05293 | -73.56373 | 23025 ft | 420 kts | 31° |
| 2026-05-04 19:31 | 6.07839 | -73.54931 | 23017 ft | 420 kts | 31° |
| 2026-05-04 19:31 | 6.10388 | -73.53490 | 23017 ft | 420 kts | 31° |
| 2026-05-04 19:31 | 6.12935 | -73.52050 | 23017 ft | 420 kts | 31° |
| 2026-05-04 19:31 | 6.15479 | -73.50612 | 23003 ft | 420 kts | 31° |
| 2026-05-04 19:32 | 6.18021 | -73.49173 | 22898 ft | 418 kts | 31° |
| 2026-05-04 19:32 | 6.20542 | -73.47744 | 22299 ft | 414 kts | 31° |
| 2026-05-04 19:32 | 6.23036 | -73.46330 | 21699 ft | 411 kts | 31° |
| 2026-05-04 19:32 | 6.25516 | -73.44921 | 21101 ft | 408 kts | 31° |
| 2026-05-04 19:33 | 6.27975 | -73.43522 | 20512 ft | 405 kts | 31° |
| 2026-05-04 19:33 | 6.30419 | -73.42132 | 19952 ft | 401 kts | 31° |
| 2026-05-04 19:33 | 6.32839 | -73.40761 | 19429 ft | 398 kts | 31° |
| 2026-05-04 19:33 | 6.35243 | -73.39400 | 18878 ft | 396 kts | 31° |
| 2026-05-04 19:34 | 6.37645 | -73.38037 | 18247 ft | 396 kts | 31° |
| 2026-05-04 19:34 | 6.40034 | -73.36680 | 17619 ft | 394 kts | 31° |
| 2026-05-04 19:34 | 6.42384 | -73.35346 | 17058 ft | 391 kts | 31° |
| 2026-05-04 19:34 | 6.44782 | -73.33985 | 16401 ft | 391 kts | 31° |
| 2026-05-04 19:35 | 6.47146 | -73.32642 | 15786 ft | 390 kts | 32° |
| 2026-05-04 19:35 | 6.49473 | -73.31321 | 15219 ft | 388 kts | 31° |
| 2026-05-04 19:35 | 6.51818 | -73.29992 | 14695 ft | 386 kts | 31° |
| 2026-05-04 19:35 | 6.54149 | -73.28671 | 14184 ft | 383 kts | 31° |
| 2026-05-04 19:36 | 6.56460 | -73.27361 | 13661 ft | 380 kts | 31° |
| 2026-05-04 19:36 | 6.58758 | -73.26056 | 13097 ft | 377 kts | 31° |
| 2026-05-04 19:36 | 6.61030 | -73.24760 | 12528 ft | 374 kts | 31° |
| 2026-05-04 19:36 | 6.63284 | -73.23474 | 11970 ft | 370 kts | 31° |
| 2026-05-04 19:37 | 6.65517 | -73.22202 | 11441 ft | 367 kts | 30° |
| 2026-05-04 19:37 | 6.67707 | -73.20959 | 11215 ft | 354 kts | 30° |
| 2026-05-04 19:37 | 6.69809 | -73.19767 | 11082 ft | 339 kts | 30° |
| 2026-05-04 19:37 | 6.71828 | -73.18621 | 10957 ft | 327 kts | 30° |
| 2026-05-04 19:38 | 6.73764 | -73.17521 | 10865 ft | 314 kts | 30° |
| 2026-05-04 19:38 | 6.75701 | -73.16420 | 10018 ft | 327 kts | 29° |
| 2026-05-04 19:38 | 6.77722 | -73.15271 | 9270 ft | 336 kts | 29° |
| 2026-05-04 19:38 | 6.79729 | -73.14131 | 9041 ft | 325 kts | 29° |
| 2026-05-04 19:39 | 6.81656 | -73.13035 | 8952 ft | 311 kts | 29° |
| 2026-05-04 19:39 | 6.83488 | -73.11991 | 8959 ft | 294 kts | 29° |
| 2026-05-04 19:39 | 6.85212 | -73.11007 | 8967 ft | 276 kts | 29° |
| 2026-05-04 19:39 | 6.86834 | -73.10103 | 8961 ft | 255 kts | 23° |
| 2026-05-04 19:40 | 6.88462 | -73.09681 | 8956 ft | 232 kts | 2° |
| 2026-05-04 19:40 | 6.90008 | -73.09844 | 8892 ft | 218 kts | 343° |
| 2026-05-04 19:40 | 6.91415 | -73.10376 | 8552 ft | 215 kts | 339° |
| 2026-05-04 19:40 | 6.92776 | -73.10916 | 8045 ft | 212 kts | 339° |
| 2026-05-04 19:41 | 6.94159 | -73.11464 | 7606 ft | 207 kts | 338° |
| 2026-05-04 19:41 | 6.95451 | -73.11975 | 7305 ft | 198 kts | 338° |
| 2026-05-04 19:41 | 6.96713 | -73.12471 | 6972 ft | 191 kts | 339° |
| 2026-05-04 19:41 | 6.97943 | -73.12938 | 6650 ft | 187 kts | 339° |
| 2026-05-04 19:42 | 6.99148 | -73.13389 | 6378 ft | 182 kts | 339° |
| 2026-05-04 19:42 | 7.00312 | -73.13826 | 6149 ft | 174 kts | 339° |
| 2026-05-04 19:42 | 7.01422 | -73.14243 | 5940 ft | 167 kts | 339° |
| 2026-05-04 19:42 | 7.02497 | -73.14646 | 5741 ft | 163 kts | 339° |
| 2026-05-04 19:43 | 7.03519 | -73.15031 | 5580 ft | 151 kts | 339° |
| 2026-05-04 19:43 | 7.04482 | -73.15394 | 5377 ft | 146 kts | 340° |
| 2026-05-04 19:43 | 7.05422 | -73.15749 | 5200 ft | 144 kts | 339° |
| 2026-05-04 19:43 | 7.06354 | -73.16105 | 4970 ft | 143 kts | 339° |
| 2026-05-04 19:44 | 7.07275 | -73.16462 | 4826 ft | 142 kts | 339° |
| 2026-05-04 19:44 | 7.08203 | -73.16809 | 4589 ft | 142 kts | 340° |
| 2026-05-04 19:44 | 7.09129 | -73.17152 | 4425 ft | 141 kts | 339° |
| 2026-05-04 19:44 | 7.10055 | -73.17497 | 4222 ft | 142 kts | 339° |
| 2026-05-04 19:45 | 7.10988 | -73.17853 | 4040 ft | 143 kts | 339° |
| 2026-05-04 19:45 | 7.11925 | -73.18204 | 3887 ft | 144 kts | 339° |
| 2026-05-04 19:45 | 7.12722 | -73.18504 | 3905 ft | 85 kts | 339° |
| 2026-05-04 19:45 | 7.13051 | -73.18628 | 3911 ft | 36 kts | 340° |
| 2026-05-04 19:46 | 7.13194 | -73.18665 | 3911 ft | 12 kts | 46° |
| 2026-05-04 19:46 | 7.13181 | -73.18594 | 3911 ft | 10 kts | 116° |
| 2026-05-04 19:46 | 7.13154 | -73.18564 | 3911 ft | 8 kts | 155° |
| 2026-05-04 19:46 | 7.13085 | -73.18536 | 3909 ft | 16 kts | 158° |
| 2026-05-04 19:47 | 7.12947 | -73.18482 | 3908 ft | 25 kts | 159° |
| 2026-05-04 19:47 | 7.12780 | -73.18418 | 3904 ft | 27 kts | 152° |
| 2026-05-04 19:47 | 7.12699 | -73.18252 | 3905 ft | 25 kts | 101° |
| 2026-05-04 19:47 | 7.12697 | -73.18167 | 3905 ft | 6 kts | 41° |
| 2026-05-04 19:48 | 7.12728 | -73.18160 | 3902 ft | 3 kts | 9° |
| 2026-05-04 19:48 | 7.12733 | -73.18159 | 3902 ft | 0 kts | 9° |
| 2026-05-04 19:48 | 7.12734 | -73.18159 | 3903 ft | 0 kts | 9° |
| 2026-05-04 19:53 | 7.12735 | -73.18159 | 3903 ft | 0 kts | 9° |